Time;durP1;ratioP1;P1;durP2;ratioP2;P2;SDS_P1;SDS_P2;PMS_P1;PMS_P2;Temp;Humidity;BMP_temperature;BMP_pressure;BME280_temperature;BME280_humidity;BME280_pressure;Samples;Min_cycle;Max_cycle;Signal;HPM_P1;HPM_P2
2022/01/08 00:02:17;;;;;;;;;;;;;;;;;;2214235;67;31155;-71
2022/01/08 00:04:50;;;;;;;;;;;;;;;;;;2213987;67;17171;-71
2022/01/08 00:07:23;;;;;;;;;;;;;;;;;;2212817;59;21280;-71
2022/01/08 00:09:56;;;;;;;;;;;;;;;;;;2210859;59;14824;-71
2022/01/08 00:12:29;;;;;;;;;;;;;;;;;;2214031;67;22515;-71
2022/01/08 00:15:06;;;;;;;;;;;;;;;;;;2213666;59;32798;-71
2022/01/08 00:17:39;;;;;;;;;;;;;;;;;;2212921;59;16291;-71
2022/01/08 00:20:13;;;;;;;;;;;;;;;;;;2214579;59;17378;-70
2022/01/08 00:22:50;;;;;;;;;;;;;;;;;;2213926;59;17342;-71
2022/01/08 00:25:23;;;;;;;;;;;;;;;;;;2214755;53;19415;-72
2022/01/08 00:27:56;;;;;;;;;;;;;;;;;;2213270;59;19226;-72
2022/01/08 00:30:32;;;;;;;;;;;;;;;;;;2213049;58;26384;-73
2022/01/08 00:33:05;;;;;;;;;;;;;;;;;;2213362;64;12848;-73
2022/01/08 00:35:39;;;;;;;;;;;;;;;;;;2212979;59;16288;-73
2022/01/08 00:38:12;;;;;;;;;;;;;;;;;;2212605;59;19582;-73
2022/01/08 00:40:45;;;;;;;;;;;;;;;;;;2212225;67;16246;-73
2022/01/08 00:43:19;;;;;;;;;;;;;;;;;;2212520;59;20828;-73
2022/01/08 00:45:55;;;;;;;;;;;;;;;;;;2212913;59;21539;-73
2022/01/08 00:48:28;;;;;;;;;;;;;;;;;;2212491;59;20402;-73
2022/01/08 00:51:01;;;;;;;;;;;;;;;;;;2212880;66;18002;-73
2022/01/08 00:53:34;;;;;;;;;;;;;;;;;;2210394;59;23284;-73
2022/01/08 00:56:07;;;;;;;;;;;;;;;;;;2213677;59;15446;-73
2022/01/08 00:58:40;;;;;;;;;;;;;;;;;;2212431;59;19096;-73
2022/01/08 01:01:16;;;;;;;;;;;;;;;;;;2211896;59;14918;-73
2022/01/08 01:03:49;;;;;;;;;;;;;;;;;;2211640;59;15073;-73
2022/01/08 01:06:23;;;;;;;;;;;;;;;;;;2211943;59;19923;-73
2022/01/08 01:08:56;;;;;;;;;;;;;;;;;;2210954;66;16580;-73
2022/01/08 01:11:29;;;;;;;;;;;;;;;;;;2211521;59;17494;-73
2022/01/08 01:14:02;;;;;;;;;;;;;;;;;;2212079;59;17797;-73
2022/01/08 01:16:38;;;;;;;;;;;;;;;;;;2212846;59;14394;-73
2022/01/08 01:19:11;;;;;;;;;;;;;;;;;;2212036;58;22331;-73
2022/01/08 01:21:44;;;;;;;;;;;;;;;;;;2211700;59;16068;-73
2022/01/08 01:24:21;;;;;;;;;;;;;;;;;;2212277;59;17742;-73
2022/01/08 01:27:18;;;;;;;;;;;;;;;;;;2212285;59;21075;-73
2022/01/08 01:29:57;;;;;;;;;;;;;;;;;;2211362;58;24505;-73
2022/01/08 01:41:18;;;;;;;;;;;;;;;;;;2212066;59;14800;-73
2022/01/08 01:47:04;;;;;;;;;;;;;;;;;;2211178;59;12560;-73
2022/01/08 01:49:40;;;;;;;;;;;;;;;;;;2210526;59;23230;-73
2022/01/08 01:52:15;;;;;;;;;;;;;;;;;;2213175;66;16412;-73
2022/01/08 01:54:48;;;;;;;;;;;;;;;;;;2212509;67;15433;-73
2022/01/08 01:57:21;;;;;;;;;;;;;;;;;;2212220;59;20794;-73
2022/01/08 01:59:54;;;;;;;;;;;;;;;;;;2213303;59;19080;-73
2022/01/08 02:02:27;;;;;;;;;;;;;;;;;;2212312;63;14278;-73
2022/01/08 02:05:03;;;;;;;;;;;;;;;;;;2211729;59;14227;-73
2022/01/08 02:07:36;;;;;;;;;;;;;;;;;;2210422;59;22181;-73
2022/01/08 02:10:10;;;;;;;;;;;;;;;;;;2212358;59;17249;-73
2022/01/08 02:12:43;;;;;;;;;;;;;;;;;;2212992;64;19665;-73
2022/01/08 02:15:16;;;;;;;;;;;;;;;;;;2211784;59;17731;-73
2022/01/08 02:17:49;;;;;;;;;;;;;;;;;;2213250;59;16279;-73
2022/01/08 02:20:25;;;;;;;;;;;;;;;;;;2212241;59;16752;-73
2022/01/08 02:22:58;;;;;;;;;;;;;;;;;;2210570;59;16491;-73
2022/01/08 02:25:31;;;;;;;;;;;;;;;;;;2210110;59;16198;-73
2022/01/08 02:28:05;;;;;;;;;;;;;;;;;;2211935;58;16101;-73
2022/01/08 02:30:38;;;;;;;;;;;;;;;;;;2211384;59;19732;-73
2022/01/08 02:33:12;;;;;;;;;;;;;;;;;;2211431;59;14228;-73
2022/01/08 02:35:47;;;;;;;;;;;;;;;;;;2211328;59;15539;-73
2022/01/08 02:38:21;;;;;;;;;;;;;;;;;;2210638;63;19822;-73
2022/01/08 02:41:00;;;;;;;;;;;;;;;;;;2211673;59;28043;-73
2022/01/08 02:43:40;;;;;;;;;;;;;;;;;;2211407;66;19348;-73
2022/01/08 02:46:13;;;;;;;;;;;;;;;;;;2211636;59;19711;-73
2022/01/08 02:48:47;;;;;;;;;;;;;;;;;;2211274;59;16015;-73
2022/01/08 02:51:24;;;;;;;;;;;;;;;;;;2212221;63;16350;-73
2022/01/08 02:53:57;;;;;;;;;;;;;;;;;;2212436;63;14330;-73
2022/01/08 02:56:30;;;;;;;;;;;;;;;;;;2212417;59;23298;-72
2022/01/08 02:59:03;;;;;;;;;;;;;;;;;;2213056;59;16644;-73
2022/01/08 03:01:37;;;;;;;;;;;;;;;;;;2211062;59;17718;-73
2022/01/08 03:04:10;;;;;;;;;;;;;;;;;;2210713;63;17755;-73
2022/01/08 03:06:46;;;;;;;;;;;;;;;;;;2213749;58;20824;-73
2022/01/08 03:09:19;;;;;;;;;;;;;;;;;;2213711;58;20373;-73
2022/01/08 03:11:52;;;;;;;;;;;;;;;;;;2216386;67;24114;-72
2022/01/08 03:14:25;;;;;;;;;;;;;;;;;;2216372;63;15092;-73
2022/01/08 03:16:59;;;;;;;;;;;;;;;;;;2215855;67;20224;-73
2022/01/08 03:19:34;;;;;;;;;;;;;;;;;;2216084;58;16802;-73
2022/01/08 03:22:10;;;;;;;;;;;;;;;;;;2214694;63;18308;-73
2022/01/08 03:24:43;;;;;;;;;;;;;;;;;;2211949;63;16028;-70
2022/01/08 03:27:16;;;;;;;;;;;;;;;;;;2210689;59;26077;-71
2022/01/08 03:29:49;;;;;;;;;;;;;;;;;;2211750;59;16854;-71
2022/01/08 03:32:22;;;;;;;;;;;;;;;;;;2212473;59;18087;-70
2022/01/08 03:34:55;;;;;;;;;;;;;;;;;;2211794;58;18028;-70
2022/01/08 03:37:31;;;;;;;;;;;;;;;;;;2210571;59;16459;-70
2022/01/08 03:40:05;;;;;;;;;;;;;;;;;;2212262;59;18965;-70
2022/01/08 03:42:38;;;;;;;;;;;;;;;;;;2212598;63;16662;-70
2022/01/08 03:45:12;;;;;;;;;;;;;;;;;;2212038;59;27565;-70
2022/01/08 03:48:17;;;;;;;;;;;;;;;;;;2210914;59;15461;-69
2022/01/08 03:50:50;;;;;;;;;;;;;;;;;;2210897;67;19912;-69
2022/01/08 03:53:26;;;;;;;;;;;;;;;;;;2211730;58;17940;-70
2022/01/08 03:55:59;;;;;;;;;;;;;;;;;;2211163;67;22658;-69
2022/01/08 03:58:32;;;;;;;;;;;;;;;;;;2212817;59;15298;-70
2022/01/08 04:01:05;;;;;;;;;;;;;;;;;;2211392;59;14825;-70
2022/01/08 04:03:39;;;;;;;;;;;;;;;;;;2211056;63;18411;-72
2022/01/08 04:06:12;;;;;;;;;;;;;;;;;;2212135;58;20657;-72
2022/01/08 04:08:48;;;;;;;;;;;;;;;;;;2210844;63;17954;-72
2022/01/08 04:11:21;;;;;;;;;;;;;;;;;;2210356;59;21426;-73
2022/01/08 04:13:55;;;;;;;;;;;;;;;;;;2212500;67;13778;-72
2022/01/08 04:16:31;;;;;;;;;;;;;;;;;;2212595;59;21531;-73
2022/01/08 04:19:05;;;;;;;;;;;;;;;;;;2212490;63;25231;-73
2022/01/08 04:24:30;;;;;;;;;;;;;;;;;;2211980;59;17631;-72
2022/01/08 04:27:03;;;;;;;;;;;;;;;;;;2211357;59;12395;-73
2022/01/08 04:29:37;;;;;;;;;;;;;;;;;;2211317;59;19707;-72
2022/01/08 04:32:10;;;;;;;;;;;;;;;;;;2211525;59;23720;-72
2022/01/08 04:34:43;;;;;;;;;;;;;;;;;;2211962;59;13277;-73
2022/01/08 04:37:17;;;;;;;;;;;;;;;;;;2211804;59;21075;-72
2022/01/08 04:39:53;;;;;;;;;;;;;;;;;;2212544;59;14145;-72
2022/01/08 04:42:26;;;;;;;;;;;;;;;;;;2212471;59;17467;-72
2022/01/08 04:44:59;;;;;;;;;;;;;;;;;;2211898;59;16592;-72
2022/01/08 04:47:32;;;;;;;;;;;;;;;;;;2210034;59;25890;-72
2022/01/08 04:50:05;;;;;;;;;;;;;;;;;;2211699;59;14068;-72
2022/01/08 04:52:39;;;;;;;;;;;;;;;;;;2211127;59;18184;-73
2022/01/08 04:55:15;;;;;;;;;;;;;;;;;;2211992;59;22073;-72
2022/01/08 04:57:48;;;;;;;;;;;;;;;;;;2211944;59;15400;-73
2022/01/08 05:00:22;;;;;;;;;;;;;;;;;;2212756;66;16494;-75
2022/01/08 05:02:55;;;;;;;;;;;;;;;;;;2212127;59;16238;-72
2022/01/08 05:05:28;;;;;;;;;;;;;;;;;;2211411;59;24521;-73
2022/01/08 05:08:01;;;;;;;;;;;;;;;;;;2211300;59;16512;-72
2022/01/08 05:10:37;;;;;;;;;;;;;;;;;;2212047;59;15797;-72
2022/01/08 05:13:10;;;;;;;;;;;;;;;;;;2212139;66;16358;-73
2022/01/08 05:15:43;;;;;;;;;;;;;;;;;;2211325;58;17480;-73
2022/01/08 05:18:16;;;;;;;;;;;;;;;;;;2212662;63;15027;-72
2022/01/08 05:20:55;;;;;;;;;;;;;;;;;;2212219;66;18669;-72
2022/01/08 05:23:28;;;;;;;;;;;;;;;;;;2211063;63;18203;-72
2022/01/08 05:26:04;;;;;;;;;;;;;;;;;;2211231;59;20290;-73
2022/01/08 05:28:37;;;;;;;;;;;;;;;;;;2211820;67;19589;-72
2022/01/08 05:31:11;;;;;;;;;;;;;;;;;;2212348;59;14425;-73
2022/01/08 05:33:44;;;;;;;;;;;;;;;;;;2211100;59;21437;-73
2022/01/08 05:36:17;;;;;;;;;;;;;;;;;;2212404;59;22764;-73
2022/01/08 05:38:50;;;;;;;;;;;;;;;;;;2211932;59;21785;-73
2022/01/08 05:41:26;;;;;;;;;;;;;;;;;;2211997;67;24860;-73
2022/01/08 05:43:59;;;;;;;;;;;;;;;;;;2212282;63;19147;-73
2022/01/08 05:46:32;;;;;;;;;;;;;;;;;;2211734;59;16824;-72
2022/01/08 05:49:05;;;;;;;;;;;;;;;;;;2211158;59;18462;-72
2022/01/08 05:51:39;;;;;;;;;;;;;;;;;;2209144;67;25570;-72
2022/01/08 05:54:12;;;;;;;;;;;;;;;;;;2211753;59;18378;-73
2022/01/08 05:56:49;;;;;;;;;;;;;;;;;;2212277;58;16583;-72
2022/01/08 05:59:24;;;;;;;;;;;;;;;;;;2211521;59;20440;-72
2022/01/08 06:01:58;;;;;;;;;;;;;;;;;;2213010;59;20323;-73
2022/01/08 06:04:31;;;;;;;;;;;;;;;;;;2212243;67;18486;-73
2022/01/08 06:07:05;;;;;;;;;;;;;;;;;;2211107;59;16483;-73
2022/01/08 06:09:38;;;;;;;;;;;;;;;;;;2211488;59;25217;-73
2022/01/08 06:12:14;;;;;;;;;;;;;;;;;;2213011;59;13664;-72
2022/01/08 06:14:47;;;;;;;;;;;;;;;;;;2212516;58;16551;-73
2022/01/08 06:17:20;;;;;;;;;;;;;;;;;;2210768;59;20154;-72
2022/01/08 06:19:53;;;;;;;;;;;;;;;;;;2211651;59;14786;-73
2022/01/08 06:22:26;;;;;;;;;;;;;;;;;;2211415;59;14878;-73
2022/01/08 06:24:59;;;;;;;;;;;;;;;;;;2211420;67;18070;-73
2022/01/08 06:27:36;;;;;;;;;;;;;;;;;;2214073;53;69871;-70
2022/01/08 06:30:09;;;;;;;;;;;;;;;;;;2205250;59;23358;-71
2022/01/08 06:32:42;;;;;;;;;;;;;;;;;;2217037;66;19726;-71
2022/01/08 06:35:16;;;;;;;;;;;;;;;;;;2216496;59;34543;-71
2022/01/08 06:37:49;;;;;;;;;;;;;;;;;;2203674;59;34415;-70
2022/01/08 06:40:22;;;;;;;;;;;;;;;;;;2200546;59;15986;-71
2022/01/08 06:42:58;;;;;;;;;;;;;;;;;;2200488;59;43031;-70
2022/01/08 06:45:31;;;;;;;;;;;;;;;;;;2197701;66;186394;-71
2022/01/08 06:48:05;;;;;;;;;;;;;;;;;;2199962;59;21454;-71
2022/01/08 06:50:38;;;;;;;;;;;;;;;;;;2201187;58;16895;-71
2022/01/08 06:53:11;;;;;;;;;;;;;;;;;;2201101;66;25140;-71
2022/01/08 06:55:45;;;;;;;;;;;;;;;;;;2200146;67;22523;-71
2022/01/08 06:58:21;;;;;;;;;;;;;;;;;;2201842;66;59785;-71
2022/01/08 07:00:54;;;;;;;;;;;;;;;;;;2201168;59;27805;-70
2022/01/08 07:03:28;;;;;;;;;;;;;;;;;;2199501;63;70527;-71
2022/01/08 07:06:01;;;;;;;;;;;;;;;;;;2200089;59;19854;-70
2022/01/08 07:08:34;;;;;;;;;;;;;;;;;;2200197;64;25531;-70
2022/01/08 07:11:07;;;;;;;;;;;;;;;;;;2200500;59;44804;-70
2022/01/08 07:13:43;;;;;;;;;;;;;;;;;;2201072;63;26359;-72
2022/01/08 07:16:17;;;;;;;;;;;;;;;;;;2200494;67;84034;-71
2022/01/08 07:18:50;;;;;;;;;;;;;;;;;;2200892;66;53615;-71
2022/01/08 07:21:23;;;;;;;;;;;;;;;;;;2199340;59;92099;-71
2022/01/08 07:23:56;;;;;;;;;;;;;;;;;;2201452;67;34774;-70
2022/01/08 07:26:30;;;;;;;;;;;;;;;;;;2201039;59;18940;-70
2022/01/08 07:29:06;;;;;;;;;;;;;;;;;;2200949;59;20700;-70
2022/01/08 07:31:39;;;;;;;;;;;;;;;;;;2198966;59;62621;-71
2022/01/08 07:34:12;;;;;;;;;;;;;;;;;;2199491;67;107753;-71
2022/01/08 07:36:46;;;;;;;;;;;;;;;;;;2201380;66;20097;-70
2022/01/08 07:39:19;;;;;;;;;;;;;;;;;;2199662;64;68185;-71
2022/01/08 07:41:52;;;;;;;;;;;;;;;;;;2201598;67;39796;-70
2022/01/08 07:44:28;;;;;;;;;;;;;;;;;;2200413;59;15763;-71
2022/01/08 07:47:02;;;;;;;;;;;;;;;;;;2199642;59;39397;-70
2022/01/08 07:49:35;;;;;;;;;;;;;;;;;;2198421;58;76844;-70
2022/01/08 07:52:08;;;;;;;;;;;;;;;;;;2198912;66;159079;-70
2022/01/08 07:54:42;;;;;;;;;;;;;;;;;;2200080;58;17649;-71
2022/01/08 07:57:15;;;;;;;;;;;;;;;;;;2199317;59;18308;-71
2022/01/08 07:59:51;;;;;;;;;;;;;;;;;;2199809;59;63696;-71
2022/01/08 08:02:24;;;;;;;;;;;;;;;;;;2201551;59;24856;-70
2022/01/08 08:04:58;;;;;;;;;;;;;;;;;;2199524;59;50589;-70
2022/01/08 08:07:36;;;;;;;;;;;;;;;;;;2197880;59;80869;-70
2022/01/08 08:10:11;;;;;;;;;;;;;;;;;;2198792;59;129282;-70
2022/01/08 08:12:45;;;;;;;;;;;;;;;;;;2199977;66;114700;-70
2022/01/08 08:15:21;;;;;;;;;;;;;;;;;;2200179;66;16566;-70
2022/01/08 08:17:54;;;;;;;;;;;;;;;;;;2200191;59;39886;-69
2022/01/08 08:20:28;;;;;;;;;;;;;;;;;;2198639;59;63752;-70
2022/01/08 08:23:01;;;;;;;;;;;;;;;;;;2198896;59;49972;-70
2022/01/08 08:25:34;;;;;;;;;;;;;;;;;;2199274;63;19627;-70
2022/01/08 08:28:08;;;;;;;;;;;;;;;;;;2200621;59;22393;-70
2022/01/08 08:30:44;;;;;;;;;;;;;;;;;;2200438;59;17271;-70
2022/01/08 08:33:18;;;;;;;;;;;;;;;;;;2199788;58;32950;-69
2022/01/08 08:35:51;;;;;;;;;;;;;;;;;;2200400;66;17379;-70
2022/01/08 08:38:25;;;;;;;;;;;;;;;;;;2199835;64;52472;-70
2022/01/08 08:40:58;;;;;;;;;;;;;;;;;;2200823;67;18785;-70
2022/01/08 08:43:31;;;;;;;;;;;;;;;;;;2200001;58;39703;-70
2022/01/08 08:46:07;;;;;;;;;;;;;;;;;;2202324;58;19296;-70
2022/01/08 08:48:40;;;;;;;;;;;;;;;;;;2199796;59;16345;-70
2022/01/08 08:51:14;;;;;;;;;;;;;;;;;;2200040;59;28466;-70
2022/01/08 08:53:47;;;;;;;;;;;;;;;;;;2197783;59;54601;-70
2022/01/08 08:56:21;;;;;;;;;;;;;;;;;;2199402;59;16111;-70
2022/01/08 08:58:54;;;;;;;;;;;;;;;;;;2199031;59;49553;-71
2022/01/08 09:01:30;;;;;;;;;;;;;;;;;;2200744;58;27234;-70
2022/01/08 09:04:04;;;;;;;;;;;;;;;;;;2212515;59;16255;-70
2022/01/08 09:06:37;;;;;;;;;;;;;;;;;;2211712;58;31512;-71
2022/01/08 09:09:10;;;;;;;;;;;;;;;;;;2200644;59;39487;-70
2022/01/08 09:11:44;;;;;;;;;;;;;;;;;;2199050;66;28243;-70
2022/01/08 09:14:17;;;;;;;;;;;;;;;;;;2198680;59;45249;-70
2022/01/08 09:16:57;;;;;;;;;;;;;;;;;;2199544;59;68040;-71
2022/01/08 09:19:30;;;;;;;;;;;;;;;;;;2200207;58;71771;-70
2022/01/08 09:22:04;;;;;;;;;;;;;;;;;;2200136;59;104548;-70
2022/01/08 09:24:38;;;;;;;;;;;;;;;;;;2197967;59;102942;-70
2022/01/08 09:27:12;;;;;;;;;;;;;;;;;;2200612;59;15975;-70
2022/01/08 09:29:45;;;;;;;;;;;;;;;;;;2199014;59;61349;-70
2022/01/08 09:32:23;;;;;;;;;;;;;;;;;;2200128;59;71417;-70
2022/01/08 09:34:56;;;;;;;;;;;;;;;;;;2198722;66;84014;-70
2022/01/08 09:37:30;;;;;;;;;;;;;;;;;;2192285;59;90575;-70
2022/01/08 09:40:03;;;;;;;;;;;;;;;;;;2199914;58;20644;-70
2022/01/08 09:42:36;;;;;;;;;;;;;;;;;;2199033;59;32232;-71
2022/01/08 09:45:10;;;;;;;;;;;;;;;;;;2199139;59;44468;-70
2022/01/08 09:47:46;;;;;;;;;;;;;;;;;;2198803;58;27426;-71
2022/01/08 09:50:20;;;;;;;;;;;;;;;;;;2199294;58;94028;-71
2022/01/08 09:52:57;;;;;;;;;;;;;;;;;;2198092;59;78328;-70
2022/01/08 09:55:31;;;;;;;;;;;;;;;;;;2109346;59;6113042;-70
2022/01/08 09:58:05;;;;;;;;;;;;;;;;;;2199790;58;36149;-71
2022/01/08 10:00:38;;;;;;;;;;;;;;;;;;2198848;58;37796;-70
2022/01/08 10:03:18;;;;;;;;;;;;;;;;;;2200054;59;20617;-70
2022/01/08 10:05:54;;;;;;;;;;;;;;;;;;2196632;59;114515;-71
2022/01/08 10:08:28;;;;;;;;;;;;;;;;;;2189240;59;15291;-70
2022/01/08 10:11:03;;;;;;;;;;;;;;;;;;2199654;59;17562;-70
2022/01/08 10:13:39;;;;;;;;;;;;;;;;;;2195706;59;116294;-70
2022/01/08 10:19:06;;;;;;;;;;;;;;;;;;2200200;59;53636;-71
2022/01/08 10:21:39;;;;;;;;;;;;;;;;;;2198192;58;66313;-70
2022/01/08 10:24:12;;;;;;;;;;;;;;;;;;2200360;66;29199;-71
2022/01/08 10:26:49;;;;;;;;;;;;;;;;;;2199758;59;87230;-71
2022/01/08 10:29:24;;;;;;;;;;;;;;;;;;2198782;59;71127;-71
2022/01/08 10:31:59;;;;;;;;;;;;;;;;;;2201434;58;20333;-70
2022/01/08 10:34:35;;;;;;;;;;;;;;;;;;2201095;66;27045;-71
2022/01/08 10:37:08;;;;;;;;;;;;;;;;;;2200527;66;57526;-71
2022/01/08 10:39:42;;;;;;;;;;;;;;;;;;2208100;58;68825;-71
2022/01/08 10:42:16;;;;;;;;;;;;;;;;;;2200957;59;24412;-71
2022/01/08 10:44:51;;;;;;;;;;;;;;;;;;2199160;59;31800;-71
2022/01/08 10:47:24;;;;;;;;;;;;;;;;;;2197862;59;46316;-71
2022/01/08 10:50:05;;;;;;;;;;;;;;;;;;2201115;66;45221;-71
2022/01/08 10:52:43;;;;;;;;;;;;;;;;;;2200989;63;17315;-70
2022/01/08 10:55:17;;;;;;;;;;;;;;;;;;2198776;59;76361;-71
2022/01/08 10:57:50;;;;;;;;;;;;;;;;;;2201734;58;15645;-71
2022/01/08 11:00:31;;;;;;;;;;;;;;;;;;2213171;63;39030;-71
2022/01/08 11:03:05;;;;;;;;;;;;;;;;;;2200288;59;54199;-71
2022/01/08 11:05:54;;;;;;;;;;;;;;;;;;2199916;58;46906;-71
2022/01/08 11:08:30;;;;;;;;;;;;;;;;;;2199814;59;48687;-71
2022/01/08 11:11:03;;;;;;;;;;;;;;;;;;2200218;59;59812;-72
2022/01/08 11:13:38;;;;;;;;;;;;;;;;;;2191192;59;21607;-70
2022/01/08 11:16:11;;;;;;;;;;;;;;;;;;2197984;59;43202;-71
2022/01/08 11:18:44;;;;;;;;;;;;;;;;;;2197718;59;57050;-71
2022/01/08 11:21:18;;;;;;;;;;;;;;;;;;2200509;59;30809;-71
2022/01/08 11:23:54;;;;;;;;;;;;;;;;;;2201128;59;23594;-71
2022/01/08 11:26:29;;;;;;;;;;;;;;;;;;2199775;59;13580;-71
2022/01/08 11:29:04;;;;;;;;;;;;;;;;;;2200305;66;18092;-71
2022/01/08 11:31:37;;;;;;;;;;;;;;;;;;2198327;59;146279;-71
2022/01/08 11:34:12;;;;;;;;;;;;;;;;;;2200620;59;20884;-71
2022/01/08 11:36:49;;;;;;;;;;;;;;;;;;2199334;59;24034;-71
2022/01/08 11:39:29;;;;;;;;;;;;;;;;;;2199978;58;41215;-71
2022/01/08 11:42:03;;;;;;;;;;;;;;;;;;2201117;59;20071;-71
2022/01/08 11:44:36;;;;;;;;;;;;;;;;;;2200311;67;19978;-71
2022/01/08 11:47:10;;;;;;;;;;;;;;;;;;2201400;59;15851;-71
2022/01/08 11:49:44;;;;;;;;;;;;;;;;;;2198406;59;56564;-71
2022/01/08 11:52:21;;;;;;;;;;;;;;;;;;2199521;59;67949;-71
2022/01/08 11:54:58;;;;;;;;;;;;;;;;;;2203018;66;24059;-71
2022/01/08 11:57:32;;;;;;;;;;;;;;;;;;2199554;59;22943;-71
2022/01/08 12:00:09;;;;;;;;;;;;;;;;;;2200539;59;36400;-71
2022/01/08 12:02:43;;;;;;;;;;;;;;;;;;2199976;66;16783;-70
2022/01/08 12:05:26;;;;;;;;;;;;;;;;;;2210732;59;37145;-71
2022/01/08 12:08:14;;;;;;;;;;;;;;;;;;2199412;59;78611;-71
2022/01/08 12:11:01;;;;;;;;;;;;;;;;;;2201516;59;21807;-71
2022/01/08 12:13:48;;;;;;;;;;;;;;;;;;2199846;63;24503;-71
2022/01/08 12:16:34;;;;;;;;;;;;;;;;;;2200949;66;18235;-71
2022/01/08 12:19:08;;;;;;;;;;;;;;;;;;2200605;58;16999;-70
2022/01/08 12:21:42;;;;;;;;;;;;;;;;;;2211062;59;29477;-71
2022/01/08 12:24:34;;;;;;;;;;;;;;;;;;2200075;59;76972;-71
2022/01/08 12:27:24;;;;;;;;;;;;;;;;;;2206131;54;15957;-74
2022/01/08 12:29:57;;;;;;;;;;;;;;;;;;2211043;59;17086;-71
2022/01/08 12:32:35;;;;;;;;;;;;;;;;;;2213785;59;17046;-71
2022/01/08 12:35:26;;;;;;;;;;;;;;;;;;2213804;59;16887;-71
2022/01/08 12:38:01;;;;;;;;;;;;;;;;;;2211347;59;20921;-71
2022/01/08 12:40:36;;;;;;;;;;;;;;;;;;2213431;63;16189;-71
2022/01/08 12:43:23;;;;;;;;;;;;;;;;;;2212571;58;15775;-71
2022/01/08 12:46:12;;;;;;;;;;;;;;;;;;2211640;67;15365;-71
2022/01/08 12:49:04;;;;;;;;;;;;;;;;;;2211021;59;17120;-71
2022/01/08 12:51:43;;;;;;;;;;;;;;;;;;2205811;59;15144;-71
2022/01/08 12:54:17;;;;;;;;;;;;;;;;;;2209522;58;30849;-71
2022/01/08 12:56:51;;;;;;;;;;;;;;;;;;2211916;66;18329;-72
2022/01/08 12:59:32;;;;;;;;;;;;;;;;;;2212164;59;15789;-71
2022/01/08 13:02:08;;;;;;;;;;;;;;;;;;2212229;59;20485;-71
2022/01/08 13:04:42;;;;;;;;;;;;;;;;;;2211962;59;17162;-71
2022/01/08 13:07:22;;;;;;;;;;;;;;;;;;2211691;59;24458;-72
2022/01/08 13:09:59;;;;;;;;;;;;;;;;;;2211332;59;24482;-71
2022/01/08 13:12:32;;;;;;;;;;;;;;;;;;2212729;59;13208;-71
2022/01/08 13:15:09;;;;;;;;;;;;;;;;;;2209068;59;15631;-71
2022/01/08 13:17:42;;;;;;;;;;;;;;;;;;2208572;67;16886;-71
2022/01/08 13:20:15;;;;;;;;;;;;;;;;;;2211744;63;15034;-71
2022/01/08 13:22:50;;;;;;;;;;;;;;;;;;2211032;59;17767;-71
2022/01/08 13:25:23;;;;;;;;;;;;;;;;;;2210782;66;23347;-72
2022/01/08 13:27:56;;;;;;;;;;;;;;;;;;2211635;59;18644;-71
2022/01/08 13:30:33;;;;;;;;;;;;;;;;;;2211780;59;17075;-71
2022/01/08 13:33:07;;;;;;;;;;;;;;;;;;2212511;67;18696;-71
2022/01/08 13:35:40;;;;;;;;;;;;;;;;;;2211962;58;21769;-73
2022/01/08 13:38:13;;;;;;;;;;;;;;;;;;2213468;59;15616;-73
2022/01/08 13:40:46;;;;;;;;;;;;;;;;;;2213223;58;23008;-74
2022/01/08 13:43:19;;;;;;;;;;;;;;;;;;2212496;58;17890;-74
2022/01/08 13:46:00;;;;;;;;;;;;;;;;;;2213202;59;13550;-74
2022/01/08 13:48:33;;;;;;;;;;;;;;;;;;2211223;59;18382;-71
2022/01/08 13:51:09;;;;;;;;;;;;;;;;;;2207763;63;17648;-71
2022/01/08 13:53:42;;;;;;;;;;;;;;;;;;2209330;59;34897;-71
2022/01/08 13:56:15;;;;;;;;;;;;;;;;;;2212419;66;23496;-71
2022/01/08 13:58:48;;;;;;;;;;;;;;;;;;2212429;63;14394;-71
2022/01/08 14:01:24;;;;;;;;;;;;;;;;;;2211498;59;16749;-72
2022/01/08 14:03:57;;;;;;;;;;;;;;;;;;2211547;58;20674;-71
2022/01/08 14:06:31;;;;;;;;;;;;;;;;;;2212283;58;16457;-71
2022/01/08 14:09:04;;;;;;;;;;;;;;;;;;2210208;59;16483;-71
2022/01/08 14:11:38;;;;;;;;;;;;;;;;;;2210985;59;29321;-71
2022/01/08 14:14:15;;;;;;;;;;;;;;;;;;2212459;58;18142;-71
2022/01/08 14:16:54;;;;;;;;;;;;;;;;;;2211841;67;20585;-71
2022/01/08 14:19:27;;;;;;;;;;;;;;;;;;2209885;59;22726;-71
2022/01/08 14:22:01;;;;;;;;;;;;;;;;;;2211863;59;16695;-71
2022/01/08 14:24:36;;;;;;;;;;;;;;;;;;2211097;59;17358;-71
2022/01/08 14:27:10;;;;;;;;;;;;;;;;;;2210308;59;18933;-71
2022/01/08 14:29:44;;;;;;;;;;;;;;;;;;2211439;59;16436;-71
2022/01/08 14:32:20;;;;;;;;;;;;;;;;;;2212667;63;17884;-74
2022/01/08 14:34:56;;;;;;;;;;;;;;;;;;2211569;59;17778;-71
2022/01/08 14:37:30;;;;;;;;;;;;;;;;;;2212307;67;16488;-71
2022/01/08 14:40:15;;;;;;;;;;;;;;;;;;2213517;59;15135;-71
2022/01/08 14:42:56;;;;;;;;;;;;;;;;;;2211747;67;18656;-71
2022/01/08 14:45:30;;;;;;;;;;;;;;;;;;2212327;59;23229;-71
2022/01/08 14:48:16;;;;;;;;;;;;;;;;;;2211708;59;20162;-72
2022/01/08 14:50:49;;;;;;;;;;;;;;;;;;2211854;59;14188;-71
2022/01/08 14:53:23;;;;;;;;;;;;;;;;;;2209980;63;25717;-71
2022/01/08 14:55:56;;;;;;;;;;;;;;;;;;2211862;59;13601;-71
2022/01/08 14:58:29;;;;;;;;;;;;;;;;;;2213742;59;17615;-74
2022/01/08 15:01:02;;;;;;;;;;;;;;;;;;2212875;59;25554;-71
2022/01/08 15:03:38;;;;;;;;;;;;;;;;;;2211224;63;14400;-71
2022/01/08 15:06:11;;;;;;;;;;;;;;;;;;2212930;59;15734;-71
2022/01/08 15:08:44;;;;;;;;;;;;;;;;;;2210670;59;15058;-71
2022/01/08 15:11:17;;;;;;;;;;;;;;;;;;2214847;59;16054;-72
2022/01/08 15:13:50;;;;;;;;;;;;;;;;;;2215869;59;15789;-71
2022/01/08 15:16:23;;;;;;;;;;;;;;;;;;2215691;59;24601;-71
2022/01/08 15:18:59;;;;;;;;;;;;;;;;;;2216420;58;16481;-71
2022/01/08 15:21:32;;;;;;;;;;;;;;;;;;2215956;58;23004;-71
2022/01/08 15:24:06;;;;;;;;;;;;;;;;;;2216359;59;18610;-71
2022/01/08 15:26:39;;;;;;;;;;;;;;;;;;2212291;59;15846;-71
2022/01/08 15:29:12;;;;;;;;;;;;;;;;;;2211128;59;14383;-71
2022/01/08 15:31:45;;;;;;;;;;;;;;;;;;2211457;59;23454;-71
2022/01/08 15:34:21;;;;;;;;;;;;;;;;;;2211701;58;14919;-71
2022/01/08 15:36:54;;;;;;;;;;;;;;;;;;2211426;63;19411;-71
2022/01/08 15:39:27;;;;;;;;;;;;;;;;;;2210892;59;21101;-71
2022/01/08 15:42:00;;;;;;;;;;;;;;;;;;2213238;59;19244;-71
2022/01/08 15:44:33;;;;;;;;;;;;;;;;;;2212310;59;14992;-71
2022/01/08 15:47:07;;;;;;;;;;;;;;;;;;2209405;59;15415;-72
2022/01/08 15:49:43;;;;;;;;;;;;;;;;;;2210851;59;27374;-72
2022/01/08 15:52:17;;;;;;;;;;;;;;;;;;2211328;59;12224;-71
2022/01/08 15:54:50;;;;;;;;;;;;;;;;;;2211902;59;16032;-71
2022/01/08 15:57:23;;;;;;;;;;;;;;;;;;2211302;59;21790;-72
2022/01/08 15:59:56;;;;;;;;;;;;;;;;;;2212754;63;35736;-72
2022/01/08 16:02:30;;;;;;;;;;;;;;;;;;2212449;59;16727;-71
2022/01/08 16:05:06;;;;;;;;;;;;;;;;;;2211779;59;25040;-71
2022/01/08 16:07:39;;;;;;;;;;;;;;;;;;2211039;59;27423;-72
2022/01/08 16:10:12;;;;;;;;;;;;;;;;;;2212136;59;12978;-71
2022/01/08 16:12:45;;;;;;;;;;;;;;;;;;2212463;58;16026;-71
2022/01/08 16:15:20;;;;;;;;;;;;;;;;;;2211456;59;21087;-72
2022/01/08 16:17:53;;;;;;;;;;;;;;;;;;2212855;58;15667;-72
2022/01/08 16:20:29;;;;;;;;;;;;;;;;;;2212446;59;25933;-71
2022/01/08 16:23:02;;;;;;;;;;;;;;;;;;2213380;66;18259;-71
2022/01/08 16:25:35;;;;;;;;;;;;;;;;;;2210979;59;16034;-71
2022/01/08 16:28:09;;;;;;;;;;;;;;;;;;2212565;59;12173;-71
2022/01/08 16:30:42;;;;;;;;;;;;;;;;;;2213537;59;17043;-71
2022/01/08 16:33:16;;;;;;;;;;;;;;;;;;2211873;58;19975;-72
2022/01/08 16:35:52;;;;;;;;;;;;;;;;;;2211489;59;15571;-72
2022/01/08 16:38:25;;;;;;;;;;;;;;;;;;2211187;59;12897;-72
2022/01/08 16:40:59;;;;;;;;;;;;;;;;;;2213392;59;16436;-71
2022/01/08 16:43:32;;;;;;;;;;;;;;;;;;2212090;59;14074;-71
2022/01/08 16:46:07;;;;;;;;;;;;;;;;;;2213175;59;17155;-71
2022/01/08 16:48:40;;;;;;;;;;;;;;;;;;2212307;59;20409;-71
2022/01/08 16:51:16;;;;;;;;;;;;;;;;;;2212109;67;19748;-71
2022/01/08 16:53:49;;;;;;;;;;;;;;;;;;2211290;59;15272;-71
2022/01/08 16:56:23;;;;;;;;;;;;;;;;;;2211540;59;15713;-71
2022/01/08 16:58:56;;;;;;;;;;;;;;;;;;2211276;59;14850;-71
2022/01/08 17:01:30;;;;;;;;;;;;;;;;;;2211633;59;17926;-71
2022/01/08 17:04:03;;;;;;;;;;;;;;;;;;2212293;58;14821;-71
2022/01/08 17:06:39;;;;;;;;;;;;;;;;;;2211125;59;19713;-71
2022/01/08 17:09:12;;;;;;;;;;;;;;;;;;2209898;59;21889;-71
2022/01/08 17:11:45;;;;;;;;;;;;;;;;;;2211293;63;14630;-71
2022/01/08 17:14:19;;;;;;;;;;;;;;;;;;2212829;66;20806;-71
2022/01/08 17:16:52;;;;;;;;;;;;;;;;;;2211902;58;15502;-71
2022/01/08 17:19:25;;;;;;;;;;;;;;;;;;2211419;63;16412;-71
2022/01/08 17:22:01;;;;;;;;;;;;;;;;;;2211949;66;21591;-71
2022/01/08 17:24:34;;;;;;;;;;;;;;;;;;2210880;59;32375;-71
2022/01/08 17:27:07;;;;;;;;;;;;;;;;;;2210654;59;17001;-71
2022/01/08 17:29:41;;;;;;;;;;;;;;;;;;2211548;59;18265;-71
2022/01/08 17:32:14;;;;;;;;;;;;;;;;;;2210715;59;19724;-72
2022/01/08 17:34:47;;;;;;;;;;;;;;;;;;2209382;67;12599;-71
2022/01/08 17:37:23;;;;;;;;;;;;;;;;;;2208087;59;16083;-71
2022/01/08 17:39:57;;;;;;;;;;;;;;;;;;2210682;59;14473;-71
2022/01/08 17:42:30;;;;;;;;;;;;;;;;;;2212520;58;15200;-72
2022/01/08 17:45:04;;;;;;;;;;;;;;;;;;2211966;59;20526;-71
2022/01/08 17:47:37;;;;;;;;;;;;;;;;;;2209975;59;17720;-71
2022/01/08 17:50:11;;;;;;;;;;;;;;;;;;2210237;67;14396;-71
2022/01/08 17:52:47;;;;;;;;;;;;;;;;;;2211607;59;16738;-71